Time;durP1;ratioP1;P1;durP2;ratioP2;P2;SDS_P1;SDS_P2;PMS_P1;PMS_P2;Temp;Humidity;BMP_temperature;BMP_pressure;BME280_temperature;BME280_humidity;BME280_pressure;Samples;Min_cycle;Max_cycle;Signal;HPM_P1;HPM_P2
2021/03/19 00:00:25;;;;;;;5.93;4.03;;;;;;;2.44;60.71;97679.56;10158430;29;20044;-87
2021/03/19 00:05:51;;;;;;;6.50;4.03;;;;;;;2.49;60.56;97673.16;10171662;29;20049;-87
2021/03/19 00:17:11;;;;;;;6.20;4.50;;;;;;;2.44;60.99;97663.03;11358404;23;20038;31
2021/03/19 00:28:54;;;;;;;6.78;4.35;;;;;;;2.40;61.49;97654.34;10147682;29;20041;-87
2021/03/19 00:46:50;;;;;;;6.82;4.93;;;;;;;2.59;62.11;97652.09;10306069;23;20064;-85
2021/03/19 00:58:09;;;;;;;6.78;4.53;;;;;;;2.62;62.03;97646.78;11417292;23;20066;-89
2021/03/19 01:03:29;;;;;;;5.82;4.60;;;;;;;2.65;61.97;97646.44;10151077;29;20048;-88
2021/03/19 01:08:50;;;;;;;6.65;4.57;;;;;;;2.65;62.39;97640.19;10128526;29;20052;-88
2021/03/19 01:14:11;;;;;;;7.60;5.00;;;;;;;2.64;62.04;97644.97;10116673;29;20113;-86
2021/03/19 01:19:32;;;;;;;6.80;4.85;;;;;;;2.67;62.35;97640.38;10104186;29;20105;-88
2021/03/19 01:24:52;;;;;;;6.55;4.95;;;;;;;2.69;62.60;97638.53;10115925;29;20081;-87
2021/03/19 01:30:22;;;;;;;6.75;4.85;;;;;;;2.67;63.03;97640.38;10129268;29;20127;-88
2021/03/19 01:35:43;;;;;;;7.57;5.30;;;;;;;2.65;63.26;97642.94;10113874;29;20109;-87
2021/03/19 01:41:04;;;;;;;7.55;5.05;;;;;;;2.63;63.15;97645.50;10116176;29;20131;-87
2021/03/19 01:47:22;;;;;;;6.10;4.93;;;;;;;2.67;63.18;97640.38;10090769;29;20121;-87
2021/03/19 01:53:40;;;;;;;7.25;5.25;;;;;;;2.64;62.94;97636.69;10124290;29;20051;-86
2021/03/19 01:59:56;;;;;;;6.10;4.97;;;;;;;2.59;64.11;97632.06;10139706;29;20045;-88
2021/03/19 02:06:13;;;;;;;7.00;5.20;;;;;;;2.45;63.50;97631.44;10120001;29;20045;-87
2021/03/19 02:12:30;;;;;;;6.13;5.10;;;;;;;2.25;63.89;97635.00;10136226;29;20046;-88
2021/03/19 02:18:46;;;;;;;7.65;5.40;;;;;;;2.13;64.38;97625.56;10138494;29;20046;-88
2021/03/19 02:25:02;;;;;;;6.05;5.25;;;;;;;2.04;64.35;97631.56;10131883;29;20055;-87
2021/03/19 02:31:10;;;;;;;7.50;5.32;;;;;;;2.04;64.82;97628.81;10127073;29;20045;-87
2021/03/19 02:36:30;;;;;;;9.55;6.13;;;;;;;2.02;64.82;97623.81;10146133;29;20080;-87
2021/03/19 02:41:50;;;;;;;7.32;6.18;;;;;;;2.03;65.12;97625.31;10132755;29;20102;-88
2021/03/19 02:47:10;;;;;;;8.13;5.45;;;;;;;2.07;65.42;97630.47;10113266;29;20055;-87
2021/03/19 02:52:33;;;;;;;6.82;5.47;;;;;;;2.11;65.13;97623.31;10118787;29;20071;-85
2021/03/19 02:57:56;;;;;;;8.32;6.03;;;;;;;2.15;65.70;97620.97;10138937;29;20053;-87
2021/03/19 03:03:16;;;;;;;7.85;6.07;;;;;;;2.17;65.62;97623.94;10394416;23;20060;-88
2021/03/19 03:08:36;;;;;;;9.40;6.13;;;;;;;2.16;65.51;97638.25;10165954;29;20033;-85
2021/03/19 03:13:56;;;;;;;8.63;6.53;;;;;;;2.19;65.53;97639.91;10166073;29;20087;-86
2021/03/19 03:25:25;;;;;;;8.68;6.40;;;;;;;2.35;65.87;97638.00;10649294;24;20067;-89
2021/03/19 03:30:55;;;;;;;8.07;6.22;;;;;;;2.34;65.86;97637.25;10171692;29;20579;-87
2021/03/19 03:36:16;;;;;;;9.13;7.25;;;;;;;2.33;65.74;97640.56;10198275;29;20044;-87
2021/03/19 03:41:36;;;;;;;8.40;6.85;;;;;;;2.39;65.91;97638.38;10184207;29;20043;-86
2021/03/19 03:46:57;;;;;;;8.70;7.10;;;;;;;2.43;66.29;97650.53;10210817;29;20048;-88
2021/03/19 03:52:17;;;;;;;9.35;7.15;;;;;;;2.38;65.88;97636.91;10172763;29;20024;-87
2021/03/19 03:57:38;;;;;;;9.52;7.38;;;;;;;2.32;66.65;97645.34;10190298;29;20036;-87
2021/03/19 04:03:02;;;;;;;8.60;6.95;;;;;;;2.26;66.77;97642.72;10220837;23;20048;-87
2021/03/19 04:08:27;;;;;;;9.52;7.10;;;;;;;2.28;66.50;97640.16;10134489;29;20055;-88
2021/03/19 04:13:50;;;;;;;8.75;7.47;;;;;;;2.30;66.65;97639.59;10118880;29;20105;-87
2021/03/19 04:19:10;;;;;;;9.55;7.65;;;;;;;2.30;67.17;97647.88;10131301;29;20052;-88
2021/03/19 04:30:28;;;;;;;9.50;7.93;;;;;;;2.32;66.92;97645.34;10359263;23;20060;-87
2021/03/19 04:36:30;;;;;;;9.90;8.20;;;;;;;2.26;67.37;97641.97;10145101;29;20045;-86
2021/03/19 04:41:54;;;;;;;10.02;8.55;;;;;;;2.30;67.53;97636.84;10575798;23;20120;-87
2021/03/19 04:47:15;;;;;;;11.10;8.77;;;;;;;2.31;67.36;97649.34;10142787;29;20048;-88
2021/03/19 04:52:35;;;;;;;10.27;8.73;;;;;;;2.34;67.44;97650.31;10568024;23;20037;-84
2021/03/19 04:57:56;;;;;;;13.65;10.05;;;;;;;2.29;67.29;97646.41;10154397;29;20064;-88
2021/03/19 05:03:16;;;;;;;11.82;9.35;;;;;;;2.28;67.58;97666.97;10149963;29;20040;-86
2021/03/19 05:08:37;;;;;;;12.32;10.02;;;;;;;2.23;67.37;97654.81;10139776;29;20056;-88
2021/03/19 05:13:57;;;;;;;13.23;10.80;;;;;;;2.26;67.89;97659.25;10154235;29;20040;-88
2021/03/19 05:19:18;;;;;;;14.38;11.25;;;;;;;2.27;67.90;97666.22;10136972;29;20037;-85
2021/03/19 05:24:39;;;;;;;14.48;11.30;;;;;;;2.31;68.40;97674.13;10139584;29;20064;-87
2021/03/19 05:30:00;;;;;;;15.48;11.43;;;;;;;2.28;68.13;97677.97;10142426;29;20135;-88
2021/03/19 05:35:22;;;;;;;14.95;11.63;;;;;;;2.30;68.05;97678.91;10161893;29;20066;-86
2021/03/19 05:40:47;;;;;;;16.80;13.48;;;;;;;2.33;68.31;97679.13;10139218;29;20069;-86
2021/03/19 05:46:33;;;;;;;17.98;14.52;;;;;;;2.42;68.13;97687.63;10147974;29;20104;-87
2021/03/19 05:51:58;;;;;;;17.95;14.48;;;;;;;2.47;68.27;97683.97;10159306;29;20044;-87
2021/03/19 05:57:31;;;;;;;20.23;15.85;;;;;;;2.42;68.54;97676.63;10154680;29;20045;-85
2021/03/19 06:02:52;;;;;;;20.35;15.85;;;;;;;2.49;68.47;97692.44;10168823;23;20064;-88
2021/03/19 06:08:12;;;;;;;22.83;16.83;;;;;;;2.52;68.61;97696.16;10149506;29;20037;-88
2021/03/19 06:13:51;;;;;;;20.10;15.75;;;;;;;2.70;68.77;97694.41;10163543;29;20037;-87
2021/03/19 06:19:39;;;;;;;20.85;15.63;;;;;;;2.81;68.58;97700.38;10152755;29;20053;-82
2021/03/19 06:25:10;;;;;;;21.92;16.42;;;;;;;2.96;68.65;97710.72;10190172;23;20023;-87
2021/03/19 06:30:37;;;;;;;18.63;13.63;;;;;;;3.13;68.18;97708.22;10254118;23;20052;-80
2021/03/19 06:36:27;;;;;;;15.15;12.40;;;;;;;3.41;67.82;97709.44;10177858;29;20044;-83
2021/03/19 06:42:04;;;;;;;15.55;12.02;;;;;;;3.51;67.03;97728.97;10164377;29;20048;-82
2021/03/19 06:47:38;;;;;;;15.40;12.45;;;;;;;3.49;67.14;97721.25;10176815;29;20072;-80
2021/03/19 06:53:34;;;;;;;15.70;12.15;;;;;;;3.72;68.03;97730.31;10148337;29;20043;-82
2021/03/19 06:58:55;;;;;;;15.40;11.02;;;;;;;4.06;67.55;97734.78;10065161;29;20065;-81
2021/03/19 07:05:24;;;;;;;12.77;10.80;;;;;;;4.52;67.54;97732.00;10141243;29;20048;-80
2021/03/19 07:11:11;;;;;;;13.23;10.63;;;;;;;4.93;66.41;97746.72;10053337;29;20053;-81
2021/03/19 07:17:28;;;;;;;12.75;9.32;;;;;;;5.06;65.73;97738.94;10166856;29;20068;-82
2021/03/19 07:23:14;;;;;;;11.70;9.25;;;;;;;4.98;65.73;97749.28;10105882;29;20123;-80
2021/03/19 07:29:28;;;;;;;8.85;7.05;;;;;;;4.59;65.57;97758.94;10130143;29;20055;-82
2021/03/19 07:35:11;;;;;;;8.87;7.57;;;;;;;4.30;65.77;97764.63;10148642;29;20564;-85
2021/03/19 07:40:58;;;;;;;9.68;7.50;;;;;;;4.43;65.98;97762.97;10120146;29;20093;-84
2021/03/19 07:46:55;;;;;;;8.43;7.20;;;;;;;5.70;63.95;97759.00;10116475;29;20056;-83
2021/03/19 07:52:25;;;;;;;8.73;7.43;;;;;;;5.41;63.76;97773.16;10118259;29;20087;-83
2021/03/19 07:58:31;;;;;;;8.23;7.38;;;;;;;4.53;64.21;97777.72;10113866;29;20475;-85
2021/03/19 08:04:42;;;;;;;8.35;6.80;;;;;;;4.10;65.11;97775.84;10129496;29;20100;-82
2021/03/19 08:10:22;;;;;;;7.28;6.25;;;;;;;5.28;65.62;97776.13;10124206;29;20060;-83
2021/03/19 08:15:55;;;;;;;7.28;6.20;;;;;;;6.31;63.69;97778.78;10160976;29;20068;-80
2021/03/19 08:21:24;;;;;;;5.60;4.97;;;;;;;5.93;63.00;97784.56;10149716;29;20053;-81
2021/03/19 08:27:12;;;;;;;4.70;4.07;;;;;;;5.73;62.98;97780.75;10121821;29;20059;-82
2021/03/19 08:33:16;;;;;;;3.60;3.03;;;;;;;6.23;61.39;97789.19;10129700;29;20064;-81
2021/03/19 08:38:53;;;;;;;3.63;3.22;;;;;;;7.93;62.02;97786.94;10165702;29;20052;-83
2021/03/19 08:44:15;;;;;;;3.22;2.92;;;;;;;11.31;59.89;97783.22;10144517;29;20096;-80
2021/03/19 08:49:41;;;;;;;2.63;2.40;;;;;;;20.30;54.00;97789.53;10425080;23;20554;-84
2021/03/19 09:01:46;;;;;;;3.13;2.70;;;;;;;14.07;41.63;97798.31;12133927;23;20049;-80
2021/03/19 09:40:48;;;;;;;2.30;1.90;;;;;;;14.24;34.43;97806.25;12258383;23;20103;31
2021/03/19 09:47:00;;;;;;;2.80;1.80;;;;;;;14.96;40.16;97805.88;12192801;23;20241;31
2021/03/19 09:52:24;;;;;;;2.08;1.77;;;;;;;32.26;23.85;97803.16;10054712;29;20045;-90
2021/03/19 09:57:46;;;;;;;2.42;1.05;;;;;;;35.87;13.92;97800.69;10045009;29;20041;-89
2021/03/19 10:03:11;;;;;;;1.05;0.85;;;;;;;31.88;12.97;97796.59;10045539;29;20459;-89
2021/03/19 10:08:31;;;;;;;2.45;1.50;;;;;;;30.00;11.77;97797.41;10054080;29;20052;-88
2021/03/19 10:13:51;;;;;;;1.42;1.08;;;;;;;20.14;15.60;97797.56;10084894;29;20052;-88
2021/03/19 10:19:23;;;;;;;3.00;1.20;;;;;;;24.93;18.18;97793.63;10381277;23;20584;-89
2021/03/19 10:24:43;;;;;;;2.10;1.70;;;;;;;26.38;14.86;97782.09;10108539;29;20044;-89
2021/03/19 10:30:03;;;;;;;3.03;1.73;;;;;;;22.79;15.99;97793.00;10084995;29;20049;-89
2021/03/19 10:35:31;;;;;;;2.90;2.20;;;;;;;18.46;18.75;97784.75;10159124;29;20035;-88
2021/03/19 10:40:58;;;;;;;3.80;1.98;;;;;;;27.15;18.29;97786.72;10147174;29;20051;-81
2021/03/19 10:46:35;;;;;;;3.83;1.67;;;;;;;26.42;15.27;97787.81;10149562;29;20135;-78
2021/03/19 10:52:10;;;;;;;2.75;1.42;;;;;;;23.40;18.24;97786.34;10168857;29;20060;-79
2021/03/19 10:57:39;;;;;;;2.33;1.60;;;;;;;22.86;18.71;97786.03;10155241;29;20055;-80
2021/03/19 11:03:02;;;;;;;1.88;1.50;;;;;;;22.41;17.64;97790.78;10155489;29;20060;-79
2021/03/19 11:08:22;;;;;;;2.75;1.67;;;;;;;19.07;18.91;97786.97;10153716;29;20067;-79
2021/03/19 11:13:41;;;;;;;3.15;1.70;;;;;;;18.76;20.12;97798.56;10127786;29;20044;-82
2021/03/19 11:19:26;;;;;;;1.98;1.52;;;;;;;18.36;20.72;97784.38;10139911;29;20546;-79
2021/03/19 11:24:47;;;;;;;2.30;1.40;;;;;;;18.91;20.67;97780.72;10130684;29;20040;-80
2021/03/19 11:30:35;;;;;;;2.13;1.50;;;;;;;18.80;19.89;97787.41;10100984;29;20044;-75
2021/03/19 11:36:13;;;;;;;1.90;1.70;;;;;;;15.50;20.69;97790.28;10114041;29;20052;-79
2021/03/19 11:41:35;;;;;;;2.17;1.48;;;;;;;13.69;22.39;97789.22;10101683;29;20056;-79
2021/03/19 11:46:59;;;;;;;1.70;1.30;;;;;;;12.15;23.51;97784.38;10127336;29;20041;-78
2021/03/19 11:52:20;;;;;;;3.33;1.50;;;;;;;12.29;24.87;97774.06;10101355;29;20049;-78
2021/03/19 11:57:40;;;;;;;2.20;1.98;;;;;;;12.49;25.76;97790.63;10100850;29;20045;-78
2021/03/19 12:03:06;;;;;;;2.50;2.03;;;;;;;11.46;27.04;97791.91;10120535;29;20044;-79
2021/03/19 12:08:26;;;;;;;2.47;1.85;;;;;;;10.97;27.21;97790.06;10102394;29;20040;-80
2021/03/19 12:13:46;;;;;;;2.50;1.60;;;;;;;10.32;28.42;97786.38;10128268;29;20056;-80
2021/03/19 12:19:06;;;;;;;3.53;2.58;;;;;;;9.67;30.08;97792.97;10120527;29;20518;-78
2021/03/19 12:24:26;;;;;;;4.10;2.83;;;;;;;8.76;29.98;97803.72;10133460;29;20092;-80
2021/03/19 12:29:58;;;;;;;3.45;2.67;;;;;;;8.16;33.23;97795.69;10207009;24;20121;-78
2021/03/19 12:35:18;;;;;;;4.45;2.80;;;;;;;8.80;33.69;97801.25;10070790;29;20041;-80
2021/03/19 12:40:38;;;;;;;4.32;2.88;;;;;;;9.72;32.56;97794.72;10074090;29;20052;-79
2021/03/19 12:45:58;;;;;;;3.22;2.35;;;;;;;10.26;31.73;97794.34;10075406;29;20183;-78
2021/03/19 12:51:18;;;;;;;5.82;3.30;;;;;;;9.18;35.53;97795.75;10100305;29;20409;-79
2021/03/19 12:56:38;;;;;;;5.18;2.95;;;;;;;8.33;36.54;97795.63;10105751;29;20048;-81
2021/03/19 13:26:40;;;;;;;5.43;2.45;;;;;;;5.49;43.44;97827.72;12053369;23;20135;31
2021/03/19 13:38:41;;;;;;;4.50;2.70;;;;;;;5.59;43.73;97814.78;12298978;23;20079;31
2021/03/19 13:44:01;;;;;;;4.57;2.72;;;;;;;6.09;43.43;97806.66;9962612;29;20059;-81
2021/03/19 13:49:21;;;;;;;5.07;2.72;;;;;;;6.55;43.68;97807.78;10100739;23;20060;-82
2021/03/19 13:54:42;;;;;;;4.72;2.90;;;;;;;6.39;44.19;97809.22;10178080;29;20048;-81
2021/03/19 14:00:03;;;;;;;2.95;2.00;;;;;;;6.26;43.10;97817.78;10154890;29;20072;-79
2021/03/19 14:05:27;;;;;;;3.03;2.03;;;;;;;6.37;43.58;97827.72;10200680;23;20048;-78
2021/03/19 14:17:20;;;;;;;3.40;1.80;;;;;;;7.81;42.45;97819.31;10280184;23;20468;-79
2021/03/19 14:22:40;;;;;;;1.95;1.52;;;;;;;8.19;41.55;97821.59;11086899;23;20799;-80
2021/03/19 14:28:03;;;;;;;2.42;2.08;;;;;;;8.42;42.04;97832.44;10550547;23;20048;-81
2021/03/19 14:33:40;;;;;;;2.30;1.50;;;;;;;8.44;41.72;97821.47;11808748;23;20059;-81
2021/03/19 14:39:00;;;;;;;2.80;1.92;;;;;;;8.63;41.77;97832.69;10133386;29;20055;-79
2021/03/19 14:44:20;;;;;;;3.10;1.80;;;;;;;8.75;40.71;97824.53;10154996;29;20048;-79
2021/03/19 14:49:40;;;;;;;3.00;1.85;;;;;;;8.32;40.48;97837.94;10169103;29;20440;-80
2021/03/19 14:54:59;;;;;;;4.88;2.50;;;;;;;7.39;41.82;97837.56;10141104;29;20048;-81
2021/03/19 15:00:29;;;;;;;3.80;2.33;;;;;;;7.03;42.10;97834.59;10167189;23;20136;-79
2021/03/19 15:05:49;;;;;;;4.88;2.10;;;;;;;6.87;42.26;97843.06;10192247;23;20119;-76
2021/03/19 15:11:10;;;;;;;3.45;2.17;;;;;;;6.52;42.48;97833.91;10089633;29;20045;-77
2021/03/19 15:16:29;;;;;;;3.30;2.38;;;;;;;6.60;42.81;97834.59;10102641;29;20048;-78
2021/03/19 15:28:12;;;;;;;5.20;2.30;;;;;;;6.41;43.20;97855.78;10034298;29;20054;-78
2021/03/19 15:33:32;;;;;;;3.33;2.10;;;;;;;6.16;43.79;97842.63;10026105;29;20046;-77
2021/03/19 15:38:54;;;;;;;3.17;2.00;;;;;;;6.15;43.89;97851.50;10051035;29;20093;-85
2021/03/19 15:44:14;;;;;;;4.38;2.40;;;;;;;5.97;44.37;97848.63;11672685;23;20549;-78
2021/03/19 15:49:35;;;;;;;4.90;2.55;;;;;;;5.87;44.67;97852.53;10037045;29;20049;-78
2021/03/19 15:54:54;;;;;;;3.42;1.90;;;;;;;5.68;44.04;97861.28;10024634;29;20050;-79
2021/03/19 16:00:15;;;;;;;3.03;1.75;;;;;;;5.44;43.95;97863.38;10011443;29;20045;-79
2021/03/19 16:05:36;;;;;;;2.65;1.50;;;;;;;5.16;43.54;97874.69;10011775;29;20045;-79
2021/03/19 16:10:56;;;;;;;2.97;1.92;;;;;;;4.92;43.89;97872.47;10011442;29;20046;-79
2021/03/19 16:16:16;;;;;;;3.70;1.90;;;;;;;4.82;44.01;97872.28;10012668;29;20061;-79
2021/03/19 16:21:36;;;;;;;3.35;2.25;;;;;;;4.77;44.55;97890.53;10011165;29;20049;-79
2021/03/19 16:26:56;;;;;;;5.53;2.00;;;;;;;4.70;45.05;97913.41;10012304;29;20060;-80
2021/03/19 16:32:15;;;;;;;2.83;1.35;;;;;;;4.37;48.42;97931.78;10034589;29;20033;-81
2021/03/19 16:37:35;;;;;;;1.90;0.80;;;;;;;3.83;48.51;97947.38;10068282;29;20050;-82
2021/03/19 16:42:57;;;;;;;0.98;0.47;;;;;;;3.59;50.32;97950.56;10043475;29;20089;-82
2021/03/19 16:48:20;;;;;;;2.13;0.70;;;;;;;3.53;49.69;97958.25;10039359;29;20478;-79
2021/03/19 16:53:41;;;;;;;1.40;0.70;;;;;;;3.48;49.27;97962.63;10039638;29;20116;-79
2021/03/19 16:59:04;;;;;;;1.47;0.87;;;;;;;3.42;49.12;97959.28;10050041;29;20075;-79
2021/03/19 17:04:27;;;;;;;2.22;0.90;;;;;;;3.31;49.23;97970.59;10024739;29;20401;-80
2021/03/19 17:09:50;;;;;;;1.35;0.90;;;;;;;3.14;49.82;97973.75;10803510;23;20063;-88
2021/03/19 17:15:21;;;;;;;1.20;0.83;;;;;;;3.11;51.05;97983.13;11482873;23;20123;-88
2021/03/19 17:26:33;;;;;;;1.38;0.73;;;;;;;2.87;51.43;97995.94;10855681;23;20075;-85
2021/03/19 17:31:57;;;;;;;4.82;1.83;;;;;;;2.82;51.75;98004.38;10174832;29;20127;-79
2021/03/19 17:37:19;;;;;;;2.28;1.50;;;;;;;2.75;52.21;98000.25;10163125;29;20039;-85
2021/03/19 17:42:40;;;;;;;2.40;1.13;;;;;;;2.65;52.91;98013.00;10164374;29;20066;-81
2021/03/19 17:48:00;;;;;;;3.35;2.03;;;;;;;2.48;53.30;98009.88;10174376;29;20051;-79
2021/03/19 17:53:27;;;;;;;2.45;1.23;;;;;;;2.44;54.56;98010.19;10145648;29;20032;-78
2021/03/19 17:58:48;;;;;;;1.70;1.10;;;;;;;2.52;54.12;98011.03;10151987;29;20051;-80
2021/03/19 18:04:08;;;;;;;1.58;0.85;;;;;;;2.52;55.40;98022.06;10174682;29;20093;-81
2021/03/19 18:09:28;;;;;;;1.52;0.80;;;;;;;2.28;56.44;98014.03;10108214;29;20051;-79
2021/03/19 18:14:48;;;;;;;1.80;0.60;;;;;;;2.21;54.43;98022.94;10115386;29;20149;-79
2021/03/19 18:20:09;;;;;;;1.60;1.05;;;;;;;2.21;56.38;98017.44;10082186;29;20416;-78
2021/03/19 18:25:29;;;;;;;1.83;1.02;;;;;;;2.07;55.38;98024.97;10097700;29;20048;-79
2021/03/19 18:30:49;;;;;;;2.92;0.75;;;;;;;2.03;56.39;98027.31;10110256;29;20076;-78
2021/03/19 18:36:09;;;;;;;1.27;0.70;;;;;;;1.92;56.63;98039.25;10084233;29;20044;-78
2021/03/19 18:41:29;;;;;;;2.35;1.00;;;;;;;1.84;58.05;98032.94;10141794;29;20049;-84
2021/03/19 18:46:48;;;;;;;2.53;1.20;;;;;;;1.77;57.05;98044.56;10125586;29;20079;-78
2021/03/19 18:52:08;;;;;;;2.03;0.90;;;;;;;1.74;57.77;98059.38;10096544;29;20100;-78
2021/03/19 18:57:28;;;;;;;2.15;0.90;;;;;;;1.75;56.88;98060.88;10083859;29;20044;-78
2021/03/19 19:02:48;;;;;;;1.80;1.00;;;;;;;1.67;58.33;98068.25;10100429;29;20056;-79
2021/03/19 19:08:08;;;;;;;3.45;1.20;;;;;;;1.65;57.33;98060.53;10131205;29;20060;-79
2021/03/19 19:13:29;;;;;;;2.72;1.10;;;;;;;1.65;57.56;98060.53;10592050;23;20071;-87
2021/03/19 19:18:49;;;;;;;2.33;1.05;;;;;;;1.69;58.12;98065.72;10641222;23;20147;-77
2021/03/19 19:24:09;;;;;;;3.33;1.50;;;;;;;1.72;57.56;98070.91;10144792;29;20059;-76
2021/03/19 19:29:28;;;;;;;2.88;1.55;;;;;;;1.68;58.18;98075.25;10141527;29;20044;-77
2021/03/19 19:34:48;;;;;;;5.28;1.98;;;;;;;1.64;58.32;98081.06;10154129;29;20044;-77
2021/03/19 19:40:09;;;;;;;4.05;2.03;;;;;;;1.61;58.19;98081.34;10127770;29;20055;-78
2021/03/19 19:45:29;;;;;;;3.22;2.10;;;;;;;1.64;58.59;98083.81;10114404;29;20055;-75
2021/03/19 19:50:52;;;;;;;4.63;2.42;;;;;;;1.68;58.87;98089.00;10153219;29;20396;-76
2021/03/19 19:56:13;;;;;;;4.53;2.30;;;;;;;1.72;58.70;98089.41;10140660;29;20056;-79
2021/03/19 20:01:34;;;;;;;6.18;2.88;;;;;;;1.78;58.96;98089.34;10127868;29;20052;-79
2021/03/19 20:06:54;;;;;;;4.00;2.72;;;;;;;1.81;59.57;98099.28;10131412;29;20081;-79
2021/03/19 20:12:13;;;;;;;4.03;2.35;;;;;;;1.75;60.17;98087.66;10114698;29;20415;-80
2021/03/19 20:17:33;;;;;;;3.72;2.53;;;;;;;1.63;59.87;98096.06;10101548;29;20072;-79
2021/03/19 20:22:53;;;;;;;4.25;3.42;;;;;;;1.63;60.29;98109.81;10088370;29;20048;-78
2021/03/19 20:28:17;;;;;;;3.28;2.30;;;;;;;1.57;60.66;98119.47;10112504;29;20041;-79
2021/03/19 20:33:38;;;;;;;3.58;2.65;;;;;;;1.51;61.91;98121.53;10113104;29;20048;-79
2021/03/19 20:38:59;;;;;;;3.10;2.55;;;;;;;1.36;62.74;98133.78;10112508;29;20045;-79
2021/03/19 20:44:20;;;;;;;3.28;2.50;;;;;;;1.19;62.77;98143.53;10112276;29;20104;-78
2021/03/19 20:49:41;;;;;;;4.00;3.30;;;;;;;1.05;62.13;98151.69;10124998;29;20045;-78
2021/03/19 20:55:02;;;;;;;4.72;3.28;;;;;;;0.97;63.20;98169.34;10086304;29;20488;-80
2021/03/19 21:00:48;;;;;;;4.65;3.30;;;;;;;0.93;62.92;98169.63;10099311;29;20049;-78
2021/03/19 21:06:33;;;;;;;4.53;3.30;;;;;;;0.71;63.91;98167.88;10124669;29;20048;-79
2021/03/19 21:11:56;;;;;;;4.78;2.72;;;;;;;0.60;64.05;98181.75;10087778;29;20422;-78
2021/03/19 21:17:16;;;;;;;6.50;2.63;;;;;;;0.50;62.85;98181.38;10085699;29;20053;-78
2021/03/19 21:22:36;;;;;;;3.20;2.15;;;;;;;0.45;63.62;98186.91;10110781;29;20045;-78
2021/03/19 21:27:56;;;;;;;2.97;2.05;;;;;;;0.44;63.18;98193.66;10084905;29;20378;-79
2021/03/19 21:33:16;;;;;;;3.60;2.00;;;;;;;0.38;63.71;98193.72;10096987;29;20049;-79
2021/03/19 21:38:37;;;;;;;3.58;2.33;;;;;;;0.26;63.88;98193.09;10097533;29;20055;-79
2021/03/19 21:43:58;;;;;;;3.30;1.85;;;;;;;0.22;63.80;98197.38;10084553;29;20048;-79
2021/03/19 21:49:20;;;;;;;5.03;2.92;;;;;;;0.27;63.86;98205.56;10110235;29;20074;-79
2021/03/19 21:54:41;;;;;;;4.13;1.80;;;;;;;0.43;63.34;98206.66;10123497;29;20051;-79
2021/03/19 22:00:00;;;;;;;2.42;1.58;;;;;;;0.56;63.45;98219.75;10109765;29;20052;-78
2021/03/19 22:05:22;;;;;;;4.30;1.80;;;;;;;0.60;63.17;98225.72;10084687;29;20063;-79
2021/03/19 22:10:42;;;;;;;3.95;1.95;;;;;;;0.58;63.22;98239.22;10109609;29;20051;-78
2021/03/19 22:16:03;;;;;;;3.63;1.90;;;;;;;0.54;62.94;98236.75;10096066;29;20055;-78
2021/03/19 22:21:27;;;;;;;3.92;1.70;;;;;;;0.51;62.90;98242.53;10109275;29;20055;-78
2021/03/19 22:26:48;;;;;;;3.67;1.95;;;;;;;0.49;63.33;98247.81;10096627;29;20404;-78
2021/03/19 22:32:08;;;;;;;4.53;1.80;;;;;;;0.46;62.86;98248.81;10096601;29;20476;-78
2021/03/19 22:37:28;;;;;;;3.75;1.88;;;;;;;0.35;62.60;98249.66;10096176;29;20041;-78
2021/03/19 22:42:48;;;;;;;3.25;1.63;;;;;;;0.13;63.09;98244.38;10085865;29;20381;-78
2021/03/19 22:48:11;;;;;;;4.82;2.40;;;;;;;-0.07;63.20;98253.78;10116465;29;20048;-79
2021/03/19 22:53:34;;;;;;;5.25;2.25;;;;;;;-0.29;63.51;98254.66;10103914;29;20041;-79
2021/03/19 22:58:55;;;;;;;4.00;2.30;;;;;;;-0.40;63.35;98260.97;10090821;29;20044;-79
2021/03/19 23:04:14;;;;;;;6.03;2.83;;;;;;;-0.48;64.11;98260.03;10115990;29;20448;-78
2021/03/19 23:09:35;;;;;;;6.32;2.72;;;;;;;-0.52;63.42;98259.53;10115772;29;20044;-79
2021/03/19 23:14:55;;;;;;;4.35;2.90;;;;;;;-0.52;64.17;98262.28;10128789;29;20040;-79
2021/03/19 23:20:15;;;;;;;5.63;2.65;;;;;;;-0.49;64.21;98272.22;10115153;29;20465;-79
2021/03/19 23:25:35;;;;;;;6.63;2.83;;;;;;;-0.59;63.85;98271.03;10102542;29;20092;-78
2021/03/19 23:31:03;;;;;;;5.03;2.67;;;;;;;-0.70;64.20;98282.06;10102256;29;20044;-78
2021/03/19 23:36:24;;;;;;;5.05;3.00;;;;;;;-0.76;63.81;98284.84;10115695;29;20056;-78
2021/03/19 23:41:44;;;;;;;4.22;2.70;;;;;;;-0.80;63.81;98284.34;10113091;29;20048;-79
2021/03/19 23:47:04;;;;;;;4.57;2.60;;;;;;;-0.82;63.53;98288.84;10101053;29;20041;-79
2021/03/19 23:52:24;;;;;;;6.53;2.58;;;;;;;-1.00;63.57;98290.91;10100710;29;20050;-78
2021/03/19 23:57:44;;;;;;;4.65;2.45;;;;;;;-1.14;63.79;98293.94;10101049;29;20056;-78
